Oriana — ZCDU9 — position and weather

sailwx.info

Track history (hours):
 
Tides and Currents Weather Stations Pressure Air Temp Water Temp Dewpoint Dewpoint Depression Visibility Wind Speed Wind Dir Waves Ship Positions

Oriana (Bermuda)

Last reported at 2015-Mar-25 18:00 UTC. Time now 2015-Mar-26 19:08 UTC.
Position N 68°54' E 013°54'.

Length 261 m; beam 32.2 m; draft 8.2 m.

Type: Ship. MMSI: 310529000.

Wind from 290 at 11 knots

Waves 0.5 meters (2 feet), 4 second period

Barometer 1018.6 mb
Air temperature 3.5 ° C
Visibility: greater than 10.8 NM
Dewpoint -3.9 ° C
Water temperature 6.0 ° C

Date/timePositionNaut miles runAvg speedWind from/ knotsBaromVisibWave heightAir tempDewpointWater temp
2015-Mar-25 18:00N 68°54' E 013°54'   290 / 111018.610.8 0.5 3.5-3.9 6.0
2015-Mar-23 02:30N 69°42' E 019°03'2 0.7
2015-Mar-22 23:22N 69°41' E 018°59'0 0.0
2015-Mar-22 22:28N 69°41' E 018°59'0 0.0
2015-Mar-22 16:22N 69°41' E 018°59'0 0.0
2015-Mar-22 15:16N 69°41' E 018°59'0 0.0
2015-Mar-22 13:16N 69°41' E 018°59'0 0.0
2015-Mar-22 12:33N 69°41' E 018°59'39919.4
2015-Mar-21 16:00N 65°54' E 004°30'57011.5 220 / 231022.3 5.4 1.5 4.4-3.1 7.0
2015-Mar-19 14:32N 57°52' W 006°18'11015.7
2015-Mar-19 07:33N 56°08' W 007°19'1717.4
2015-Mar-19 06:33N 55°54' W 007°01'1716.6
2015-Mar-19 05:33N 55°40' W 006°44'1515.2
2015-Mar-19 04:33N 55°29' W 006°26'1616.2
2015-Mar-19 03:33N 55°22' W 005°60'1818.3
2015-Mar-19 02:33N 55°08' W 005°40'1817.7
2015-Mar-19 01:33N 54°52' W 005°26'1918.8
2015-Mar-19 00:33N 54°34' W 005°16'2217.9
2015-Mar-18 23:20N 54°12' W 005°14'1617.7
2015-Mar-18 22:25N 53°56' W 005°16'1617.3
2015-Mar-18 21:31N 53°41' W 005°19'23012.5
2015-Mar-18 03:04N 50°05' W 003°07'1018.9
2015-Mar-18 02:33N 50°09' W 002°52'5020.8
2015-Mar-18 00:09N 50°24' W 001°37'1321.7
2015-Mar-17 23:33N 50°29' W 001°19'1918.6
2015-Mar-17 22:33N 50°42' W 000°58'1413.6
2015-Mar-17 21:33N 50°47' W 001°18'8 7.8
2015-Mar-17 20:33N 50°53' W 001°24'0 0.3
2015-Mar-17 19:23N 50°54' W 001°24'0 0.0
2015-Mar-17 18:29N 50°54' W 001°24'0 0.0
2015-Mar-17 17:32N 50°54' W 001°24'0 0.0
2015-Mar-17 16:29N 50°54' W 001°24'0 0.0
2015-Mar-17 15:32N 50°54' W 001°24'0 0.0
2015-Mar-17 14:32N 50°54' W 001°24'0 0.0
2015-Mar-17 13:32N 50°54' W 001°24'0 0.0
2015-Mar-17 12:32N 50°54' W 001°24'0 0.0
2015-Mar-17 11:29N 50°54' W 001°24'1 0.8
2015-Mar-17 10:33N 50°53' W 001°24'8 8.5
2015-Mar-17 09:33N 50°46' W 001°15'1615.7
2015-Mar-17 08:33N 50°39' W 000°53'1515.1
2015-Mar-17 07:34N 50°35' W 000°31'1615.5
2015-Mar-17 06:33N 50°32' W 000°06'1515.0
2015-Mar-17 05:34N 50°35' E 000°17'1616.1
2015-Mar-17 04:34N 50°40' E 000°41'1918.5
2015-Mar-17 03:33N 50°51' E 001°04'1919.5
2015-Mar-17 02:34N 51°04' E 001°28'1818.4
2015-Mar-17 01:34N 51°17' E 001°48'1716.8
2015-Mar-17 00:33N 51°31' E 002°02'1716.6
2015-Mar-16 23:33N 51°43' E 002°20'  
Track history (hours):
 
Tides and Currents Weather Stations Pressure Air Temp Water Temp Dewpoint Dewpoint Depression Visibility Wind Speed Wind Dir Waves Ship Positions

Oriana (Bermuda)

Last reported at 2015-Mar-25 18:00 UTC. Time now 2015-Mar-26 19:08 UTC.
Position N 68°54' E 013°54'.

Length 261 m; beam 32.2 m; draft 8.2 m.

Type: Ship. MMSI: 310529000.

Wind from 290 at 11 knots

Waves 0.5 meters (2 feet), 4 second period

Barometer 1018.6 mb
Air temperature 3.5 ° C
Visibility: greater than 10.8 NM
Dewpoint -3.9 ° C
Water temperature 6.0 ° C

Date/timePositionNaut miles runAvg speedWind from/ knotsBaromVisibWave heightAir tempDewpointWater temp
2015-Mar-25 18:00N 68°54' E 013°54'   290 / 111018.610.8 0.5 3.5-3.9 6.0
2015-Mar-23 02:30N 69°42' E 019°03'2 0.7
2015-Mar-22 23:22N 69°41' E 018°59'0 0.0
2015-Mar-22 22:28N 69°41' E 018°59'0 0.0
2015-Mar-22 16:22N 69°41' E 018°59'0 0.0
2015-Mar-22 15:16N 69°41' E 018°59'0 0.0
2015-Mar-22 13:16N 69°41' E 018°59'0 0.0
2015-Mar-22 12:33N 69°41' E 018°59'39919.4
2015-Mar-21 16:00N 65°54' E 004°30'57011.5 220 / 231022.3 5.4 1.5 4.4-3.1 7.0
2015-Mar-19 14:32N 57°52' W 006°18'11015.7
2015-Mar-19 07:33N 56°08' W 007°19'1717.4
2015-Mar-19 06:33N 55°54' W 007°01'1716.6
2015-Mar-19 05:33N 55°40' W 006°44'1515.2
2015-Mar-19 04:33N 55°29' W 006°26'1616.2
2015-Mar-19 03:33N 55°22' W 005°60'1818.3
2015-Mar-19 02:33N 55°08' W 005°40'1817.7
2015-Mar-19 01:33N 54°52' W 005°26'1918.8
2015-Mar-19 00:33N 54°34' W 005°16'2217.9
2015-Mar-18 23:20N 54°12' W 005°14'1617.7
2015-Mar-18 22:25N 53°56' W 005°16'1617.3
2015-Mar-18 21:31N 53°41' W 005°19'23012.5
2015-Mar-18 03:04N 50°05' W 003°07'1018.9
2015-Mar-18 02:33N 50°09' W 002°52'5020.8
2015-Mar-18 00:09N 50°24' W 001°37'1321.7
2015-Mar-17 23:33N 50°29' W 001°19'1918.6
2015-Mar-17 22:33N 50°42' W 000°58'1413.6
2015-Mar-17 21:33N 50°47' W 001°18'8 7.8
2015-Mar-17 20:33N 50°53' W 001°24'0 0.3
2015-Mar-17 19:23N 50°54' W 001°24'0 0.0
2015-Mar-17 18:29N 50°54' W 001°24'0 0.0
2015-Mar-17 17:32N 50°54' W 001°24'0 0.0
2015-Mar-17 16:29N 50°54' W 001°24'0 0.0
2015-Mar-17 15:32N 50°54' W 001°24'0 0.0
2015-Mar-17 14:32N 50°54' W 001°24'0 0.0
2015-Mar-17 13:32N 50°54' W 001°24'0 0.0
2015-Mar-17 12:32N 50°54' W 001°24'0 0.0
2015-Mar-17 11:29N 50°54' W 001°24'1 0.8
2015-Mar-17 10:33N 50°53' W 001°24'8 8.5
2015-Mar-17 09:33N 50°46' W 001°15'1615.7
2015-Mar-17 08:33N 50°39' W 000°53'1515.1
2015-Mar-17 07:34N 50°35' W 000°31'1615.5
2015-Mar-17 06:33N 50°32' W 000°06'1515.0
2015-Mar-17 05:34N 50°35' E 000°17'1616.1
2015-Mar-17 04:34N 50°40' E 000°41'1918.5
2015-Mar-17 03:33N 50°51' E 001°04'1919.5
2015-Mar-17 02:34N 51°04' E 001°28'1818.4
2015-Mar-17 01:34N 51°17' E 001°48'1716.8
2015-Mar-17 00:33N 51°31' E 002°02'1716.6
2015-Mar-16 23:33N 51°43' E 002°20'  

Dump ship's entire track history